Terminal Aerodrome Forecast
Issued by NWS Kansas City/Pleasant Hill, MO

Home | Current Version | Previous Version | Text Only | Print | Product List | Glossary On
Versions: 1 2 3 4 5 6 7 8 9 10 11 12 13 14 15 16
000
FTUS43 KEAX 260500
TAFMCI
TAF
KMCI 260520Z 2606/2706 03010KT 5SM -TSRA BKN030CB
     FM260700 VRB04KT P6SM VCTS SCT030CB BKN050
     FM261100 23008KT P6SM SCT050=

USA.gov is the U.S. government's official web portal to all federal, state and local government web resources and services.